createdAt,value
2024-01-21T00:00:26.273Z,100648.16
2024-01-21T00:02:52.845Z,100645.47
2024-01-21T00:05:19.330Z,100652.72
2024-01-21T00:07:45.882Z,100649.47
2024-01-21T00:10:12.320Z,100663.34
2024-01-21T00:12:38.810Z,100659.28
2024-01-21T00:15:05.343Z,100668.25
2024-01-21T00:17:31.902Z,100665.34
2024-01-21T00:19:58.397Z,100670.94
2024-01-21T00:22:24.879Z,100683.28
2024-01-21T00:24:51.314Z,100680.88
2024-01-21T00:27:17.821Z,100684.09
2024-01-21T00:29:44.365Z,100686.94
2024-01-21T00:32:12.057Z,100691.47
2024-01-21T00:34:38.513Z,100691.28
2024-01-21T00:37:05.008Z,100695.69
2024-01-21T00:39:31.493Z,100696.72
2024-01-21T00:42:04.866Z,100702.44
2024-01-21T00:44:35.118Z,100696.34
2024-01-21T00:47:01.547Z,100705.78
2024-01-21T00:49:28.087Z,100703.56
2024-01-21T00:51:55.002Z,100709.28
2024-01-21T00:54:21.566Z,100717.53
2024-01-21T00:56:48.028Z,100714.44
2024-01-21T00:59:14.566Z,100719.47
2024-01-21T01:01:41.125Z,100718.97
2024-01-21T01:04:07.755Z,100712.72
2024-01-21T01:06:34.517Z,100719.09
2024-01-21T01:09:01.014Z,100729.53
2024-01-21T01:11:27.451Z,100735.91
2024-01-21T01:13:54.010Z,100744.00
2024-01-21T01:16:20.448Z,100749.72
2024-01-21T01:18:47.005Z,100748.19
2024-01-21T01:21:13.623Z,100757.97
2024-01-21T01:23:40.123Z,100761.84
2024-01-21T01:26:06.587Z,100769.28
2024-01-21T01:28:33.099Z,100771.41
2024-01-21T01:30:59.591Z,100769.19
2024-01-21T01:33:26.284Z,100765.66
2024-01-21T01:35:53.076Z,100774.22
2024-01-21T01:38:19.561Z,100777.25
2024-01-21T01:40:46.058Z,100790.09
2024-01-21T01:43:12.649Z,100785.28
2024-01-21T01:45:39.101Z,100793.00
2024-01-21T01:48:05.618Z,100793.31
2024-01-21T01:50:32.155Z,100791.47
2024-01-21T01:52:58.609Z,100792.31
2024-01-21T01:55:25.045Z,100791.22
2024-01-21T01:57:51.670Z,100801.72
2024-01-21T02:00:18.214Z,100759.31
2024-01-21T02:02:44.749Z,100809.75
2024-01-21T02:05:11.320Z,100815.44
2024-01-21T02:07:37.810Z,100816.16
2024-01-21T02:10:04.270Z,100816.34
2024-01-21T02:12:31.680Z,100814.50
2024-01-21T02:14:58.181Z,100825.06
2024-01-21T02:17:24.617Z,100824.13
2024-01-21T02:19:53.611Z,100822.44
2024-01-21T02:22:20.084Z,100828.28
2024-01-21T02:24:46.677Z,100839.78
2024-01-21T02:27:13.399Z,100830.13
2024-01-21T02:29:39.893Z,100848.44
2024-01-21T02:32:06.443Z,100845.81
2024-01-21T02:34:33.023Z,100859.28
2024-01-21T02:36:59.571Z,100850.66
2024-01-21T02:39:26.093Z,100852.66
2024-01-21T02:41:52.669Z,100860.56
2024-01-21T02:44:19.169Z,100867.53
2024-01-21T02:46:45.679Z,100874.50
2024-01-21T02:49:12.528Z,100873.66
2024-01-21T02:51:39.112Z,100868.03
2024-01-21T02:54:05.557Z,100864.41
2024-01-21T02:56:32.109Z,100886.91
2024-01-21T02:58:58.601Z,100882.25
2024-01-21T03:01:25.310Z,100887.03
2024-01-21T03:03:52.165Z,100903.53
2024-01-21T03:06:18.745Z,100908.50
2024-01-21T03:08:45.255Z,100912.91
2024-01-21T03:11:11.778Z,100909.53
2024-01-21T03:13:38.248Z,100923.44
2024-01-21T03:16:04.671Z,100915.91
2024-01-21T03:18:31.263Z,100933.91
2024-01-21T03:20:57.732Z,100932.50
2024-01-21T03:23:24.133Z,100942.19
2024-01-21T03:25:50.680Z,100938.63
2024-01-21T03:28:17.147Z,100943.31
2024-01-21T03:30:43.729Z,100947.84
2024-01-21T03:33:10.508Z,100947.16
2024-01-21T03:35:37.178Z,100948.00
2024-01-21T03:38:04.791Z,100954.09
2024-01-21T03:40:31.357Z,100963.03
2024-01-21T03:42:57.815Z,100970.25
2024-01-21T03:45:24.317Z,100966.59
2024-01-21T03:47:50.947Z,100976.94
2024-01-21T03:50:17.422Z,100986.16
2024-01-21T03:52:43.931Z,100985.25
2024-01-21T03:55:10.459Z,100991.78
2024-01-21T03:57:36.954Z,100999.84
2024-01-21T04:00:03.461Z,101004.41
2024-01-21T04:02:30.442Z,101004.25
2024-01-21T04:04:57.015Z,101013.56
2024-01-21T04:07:23.524Z,101015.00
2024-01-21T04:09:50.137Z,101022.66
2024-01-21T04:12:16.683Z,101029.72
2024-01-21T04:14:43.200Z,101032.50
2024-01-21T04:17:09.696Z,101043.81
2024-01-21T04:19:36.190Z,101033.19
2024-01-21T04:22:02.709Z,101050.59
2024-01-21T04:24:29.319Z,101043.19
2024-01-21T04:26:55.786Z,101050.81
2024-01-21T04:29:22.243Z,101050.81
2024-01-21T04:31:48.818Z,101060.06
2024-01-21T04:34:15.389Z,101067.03
2024-01-21T04:36:41.960Z,101078.34
2024-01-21T04:39:08.566Z,101071.63
2024-01-21T04:41:35.009Z,101077.28
2024-01-21T04:44:01.490Z,101080.41
2024-01-21T04:46:28.003Z,101082.56
2024-01-21T04:48:54.490Z,101087.16
2024-01-21T04:51:20.990Z,101100.16
2024-01-21T04:53:47.532Z,101098.19
2024-01-21T04:56:13.988Z,101103.63
2024-01-21T04:58:40.446Z,101107.69
2024-01-21T05:01:07.180Z,101103.56
2024-01-21T05:03:33.771Z,101107.25
2024-01-21T05:06:00.255Z,101114.97
2024-01-21T05:08:26.764Z,101119.81
2024-01-21T05:10:53.216Z,101123.47
2024-01-21T05:13:19.704Z,101124.03
2024-01-21T05:15:46.291Z,101126.53
2024-01-21T05:18:12.759Z,101133.66
2024-01-21T05:20:39.216Z,101139.41
2024-01-21T05:23:05.747Z,101136.25
2024-01-21T05:25:32.245Z,101141.31
2024-01-21T05:27:58.769Z,101143.28
2024-01-21T05:30:25.330Z,101144.69
2024-01-21T05:32:51.842Z,101149.84
2024-01-21T05:35:18.268Z,101159.09
2024-01-21T05:37:44.833Z,101159.81
2024-01-21T05:40:11.361Z,101154.44
2024-01-21T05:42:37.828Z,101161.28
2024-01-21T05:45:04.323Z,101167.91
2024-01-21T05:47:30.929Z,101180.00
2024-01-21T05:49:57.457Z,101182.78
2024-01-21T05:52:24.096Z,101191.13
2024-01-21T05:54:50.872Z,101193.66
2024-01-21T05:57:17.338Z,101197.44
2024-01-21T05:59:43.861Z,101202.28
2024-01-21T06:02:10.425Z,101205.94
2024-01-21T06:04:36.909Z,101205.94
2024-01-21T06:07:03.409Z,101209.38
2024-01-21T06:09:29.938Z,101210.47
2024-01-21T06:11:56.391Z,101220.59
2024-01-21T06:14:23.230Z,101224.06
2024-01-21T06:16:49.725Z,101230.03
2024-01-21T06:19:16.362Z,101226.09
2024-01-21T06:21:42.965Z,101235.72
2024-01-21T06:24:09.406Z,101246.25
2024-01-21T06:26:35.857Z,101245.97
2024-01-21T06:29:02.406Z,101253.06
2024-01-21T06:31:28.896Z,101253.75
2024-01-21T06:33:55.487Z,101254.00
2024-01-21T06:36:22.090Z,101253.00
2024-01-21T06:38:48.560Z,101264.25
2024-01-21T06:41:15.009Z,101264.91
2024-01-21T06:43:41.552Z,101262.69
2024-01-21T06:46:08.004Z,101263.56
2024-01-21T06:48:34.633Z,101258.41
2024-01-21T06:51:01.242Z,101272.59
2024-01-21T06:53:27.676Z,101272.88
2024-01-21T06:55:54.119Z,101284.41
2024-01-21T06:58:20.620Z,101291.44
2024-01-21T07:00:47.147Z,101296.56
2024-01-21T07:03:13.748Z,101301.09
2024-01-21T07:05:40.363Z,101304.63
2024-01-21T07:08:06.863Z,101308.22
2024-01-21T07:10:33.314Z,101307.75
2024-01-21T07:13:02.316Z,101310.00
2024-01-21T07:15:28.985Z,101317.84
2024-01-21T07:17:56.948Z,101330.19
2024-01-21T07:20:23.665Z,101325.91
2024-01-21T07:22:50.186Z,101338.06
2024-01-21T07:25:16.610Z,101327.63
2024-01-21T07:27:43.198Z,101336.69
2024-01-21T07:30:09.749Z,101335.59
2024-01-21T07:32:36.283Z,101345.84
2024-01-21T07:35:02.900Z,101346.91
2024-01-21T07:37:30.279Z,101343.50
2024-01-21T07:39:56.756Z,101341.44
2024-01-21T07:42:23.371Z,101349.91
2024-01-21T07:44:49.852Z,101340.34
2024-01-21T07:47:16.349Z,101343.53
2024-01-21T07:49:43.057Z,101353.72
2024-01-21T07:52:09.582Z,101353.13
2024-01-21T07:54:36.088Z,101359.25
2024-01-21T07:57:02.683Z,101356.31
2024-01-21T07:59:29.114Z,101350.47
2024-01-21T08:01:55.638Z,101353.16
2024-01-21T08:04:22.309Z,101365.69
2024-01-21T08:06:48.829Z,101363.97
2024-01-21T08:09:16.704Z,101359.84
2024-01-21T08:11:45.115Z,101365.84
2024-01-21T08:14:11.560Z,101371.97
2024-01-21T08:16:38.040Z,101367.97
2024-01-21T08:19:04.654Z,101367.66
2024-01-21T08:21:31.717Z,101360.81
2024-01-21T08:23:58.184Z,101375.88
2024-01-21T08:26:24.814Z,101367.53
2024-01-21T08:28:51.304Z,101353.41
2024-01-21T08:31:17.747Z,101359.78
2024-01-21T08:33:44.444Z,101363.97
2024-01-21T08:36:11.024Z,101373.72
2024-01-21T08:38:37.498Z,101374.78
2024-01-21T08:41:04.076Z,101386.78
2024-01-21T08:43:30.576Z,101374.09
2024-01-21T08:45:57.234Z,101379.38
2024-01-21T08:48:25.338Z,101395.22
2024-01-21T08:50:51.844Z,101389.91
2024-01-21T08:53:18.303Z,101394.66
2024-01-21T08:55:44.890Z,101383.75
2024-01-21T08:58:11.369Z,101391.59
2024-01-21T09:00:37.940Z,101390.97
2024-01-21T09:03:04.585Z,101387.19
2024-01-21T09:05:31.076Z,101386.72
2024-01-21T09:07:57.572Z,101382.22
2024-01-21T09:10:24.087Z,101380.19
2024-01-21T09:12:50.554Z,101376.31
2024-01-21T09:15:17.093Z,101387.19
2024-01-21T09:17:43.725Z,101393.59
2024-01-21T09:20:10.284Z,101380.22
2024-01-21T09:22:36.894Z,101374.09
2024-01-21T09:25:03.542Z,101381.56
2024-01-21T09:27:30.264Z,101391.03
2024-01-21T09:29:56.811Z,101399.59
2024-01-21T09:32:23.348Z,101400.75
2024-01-21T09:34:49.922Z,101393.75
2024-01-21T09:37:16.412Z,101393.44
2024-01-21T09:39:43.006Z,101409.88
2024-01-21T09:42:09.519Z,101406.28
2024-01-21T09:44:35.952Z,101414.75
2024-01-21T09:47:02.564Z,101412.78
2024-01-21T09:49:29.213Z,101406.06
2024-01-21T09:51:55.940Z,101413.28
2024-01-21T09:54:22.657Z,101404.97
2024-01-21T09:56:49.195Z,101413.31
2024-01-21T09:59:15.626Z,101423.47
2024-01-21T10:01:42.230Z,101433.69
2024-01-21T10:04:08.894Z,101421.09
2024-01-21T10:06:35.508Z,101419.50
2024-01-21T10:09:02.094Z,101426.75
2024-01-21T10:11:28.570Z,101429.53
2024-01-21T10:13:55.042Z,101441.59
2024-01-21T10:16:21.561Z,101437.03
2024-01-21T10:18:48.040Z,101434.81
2024-01-21T10:21:15.425Z,101438.84
2024-01-21T10:23:43.625Z,101450.88
2024-01-21T10:26:11.849Z,101452.97
2024-01-21T10:28:38.318Z,101440.78
2024-01-21T10:31:05.416Z,101447.94
2024-01-21T10:33:31.986Z,101452.91
2024-01-21T10:35:58.518Z,101452.25
2024-01-21T10:38:25.213Z,101452.53
2024-01-21T10:40:51.698Z,101448.00
2024-01-21T10:43:20.999Z,101445.56
2024-01-21T10:45:49.688Z,101441.75
2024-01-21T10:48:16.309Z,101436.50
2024-01-21T10:50:42.800Z,101429.06
2024-01-21T10:53:09.312Z,101452.59
2024-01-21T10:55:35.810Z,101442.44
2024-01-21T10:58:02.306Z,101451.25
2024-01-21T11:00:29.012Z,101451.25
2024-01-21T11:02:55.583Z,101452.59
2024-01-21T11:05:22.183Z,101461.72
2024-01-21T11:07:48.792Z,101461.31
2024-01-21T11:10:15.285Z,101471.09
2024-01-21T11:12:41.784Z,101478.66
2024-01-21T11:15:08.388Z,101478.50
2024-01-21T11:17:34.952Z,101486.44
2024-01-21T11:20:01.479Z,101486.44
2024-01-21T11:22:28.038Z,101494.13
2024-01-21T11:24:54.576Z,101485.84
2024-01-21T11:27:21.260Z,101480.38
2024-01-21T11:29:47.844Z,101494.63
2024-01-21T11:32:14.315Z,101491.38
2024-01-21T11:34:40.932Z,101491.22
2024-01-21T11:37:07.620Z,101490.69
2024-01-21T11:39:34.150Z,101494.44
2024-01-21T11:42:00.629Z,101501.00
2024-01-21T11:44:30.055Z,101500.41
2024-01-21T11:46:57.097Z,101516.09
2024-01-21T11:49:23.540Z,101507.88
2024-01-21T11:51:52.163Z,101513.06
2024-01-21T11:54:19.265Z,101516.22
2024-01-21T11:56:46.701Z,101517.69
2024-01-21T11:59:13.432Z,101522.09
2024-01-21T12:01:40.009Z,101528.50
2024-01-21T12:04:06.621Z,101531.38
2024-01-21T12:06:33.374Z,101534.69
2024-01-21T12:09:01.113Z,101537.28
2024-01-21T12:11:28.405Z,101542.84
2024-01-21T12:13:55.031Z,101536.56
2024-01-21T12:16:21.530Z,101540.00
2024-01-21T12:18:47.992Z,101531.72
2024-01-21T12:21:14.801Z,101535.72
2024-01-21T12:23:43.717Z,101526.91
2024-01-21T12:26:10.146Z,101518.69
2024-01-21T12:28:36.687Z,101532.03
2024-01-21T12:31:03.229Z,101535.91
2024-01-21T12:33:30.272Z,101548.00
2024-01-21T12:35:58.105Z,101542.59
2024-01-21T12:38:25.044Z,101548.59
2024-01-21T12:40:51.491Z,101547.44
2024-01-21T12:43:18.023Z,101546.22
2024-01-21T12:45:44.584Z,101555.41
2024-01-21T12:48:11.110Z,101557.41
2024-01-21T12:50:37.870Z,101565.09
2024-01-21T12:53:04.390Z,101574.06
2024-01-21T12:55:30.811Z,101588.44
2024-01-21T12:57:57.452Z,101590.72
2024-01-21T13:00:24.055Z,101603.41
2024-01-21T13:02:50.580Z,101593.00
2024-01-21T13:05:18.032Z,101607.38
2024-01-21T13:07:45.017Z,101604.22
2024-01-21T13:10:11.447Z,101606.34
2024-01-21T13:12:39.070Z,101610.06
2024-01-21T13:15:05.553Z,101609.19
2024-01-21T13:17:32.052Z,101618.56
2024-01-21T13:19:58.594Z,101623.09
2024-01-21T13:22:25.038Z,101624.81
2024-01-21T13:24:51.522Z,101639.31
2024-01-21T13:27:18.181Z,101640.41
2024-01-21T13:29:44.688Z,101640.13
2024-01-21T13:32:11.147Z,101640.13
2024-01-21T13:34:38.144Z,101649.16
2024-01-21T13:37:04.731Z,101648.00
2024-01-21T13:39:31.240Z,101646.22
2024-01-21T13:41:57.869Z,101650.22
2024-01-21T13:44:24.851Z,101664.41
2024-01-21T13:46:51.630Z,101652.69
2024-01-21T13:49:18.270Z,101658.06
2024-01-21T13:51:44.866Z,101653.88
2024-01-21T13:54:12.687Z,101672.81
2024-01-21T13:56:40.341Z,101682.19
2024-01-21T13:59:06.803Z,101678.78
2024-01-21T14:01:33.421Z,101670.22
2024-01-21T14:04:00.123Z,101685.28
2024-01-21T14:06:26.683Z,101681.50
2024-01-21T14:08:53.270Z,101683.53
2024-01-21T14:11:19.799Z,101682.66
2024-01-21T14:13:46.361Z,101693.53
2024-01-21T14:16:12.826Z,101687.44
2024-01-21T14:18:41.452Z,101701.44
2024-01-21T14:21:08.514Z,101705.88
2024-01-21T14:23:36.447Z,101701.22
2024-01-21T14:26:03.025Z,101701.97
2024-01-21T14:28:30.070Z,101694.66
2024-01-21T14:30:56.632Z,101698.56
2024-01-21T14:33:23.225Z,101701.13
2024-01-21T14:35:49.739Z,101698.69
2024-01-21T14:38:16.321Z,101705.16
2024-01-21T14:40:45.284Z,101697.94
2024-01-21T14:43:13.970Z,101711.56
2024-01-21T14:45:40.522Z,101720.47
2024-01-21T14:48:07.334Z,101722.31
2024-01-21T14:50:33.917Z,101730.50
2024-01-21T14:53:00.472Z,101706.59
2024-01-21T14:55:27.102Z,101723.28
2024-01-21T14:57:53.575Z,101731.06
2024-01-21T15:00:20.475Z,101730.47
2024-01-21T15:02:47.415Z,101733.28
2024-01-21T15:05:13.854Z,101731.31
2024-01-21T15:07:44.867Z,101739.66
2024-01-21T15:10:14.150Z,101741.84
2024-01-21T15:12:40.663Z,101742.09
2024-01-21T15:15:07.167Z,101737.25
2024-01-21T15:17:33.760Z,101738.81
2024-01-21T15:20:00.509Z,101746.34
2024-01-21T15:22:27.128Z,101757.72
2024-01-21T15:24:53.703Z,101753.81
2024-01-21T15:27:20.213Z,101767.69
2024-01-21T15:29:46.742Z,101770.31
2024-01-21T15:32:13.300Z,101772.28
2024-01-21T15:34:41.188Z,101773.22
2024-01-21T15:37:08.048Z,101770.63
2024-01-21T15:39:34.600Z,101782.25
2024-01-21T15:42:01.163Z,101791.97
2024-01-21T15:44:27.935Z,101794.16
2024-01-21T15:46:54.670Z,101798.78
2024-01-21T15:49:21.280Z,101805.72
2024-01-21T15:51:49.127Z,101805.91
2024-01-21T15:54:16.034Z,101806.69
2024-01-21T15:56:42.517Z,101809.09
2024-01-21T15:59:08.991Z,101817.16
2024-01-21T16:01:35.663Z,101818.41
2024-01-21T16:04:02.368Z,101819.66
2024-01-21T16:06:29.231Z,101824.59
2024-01-21T16:08:55.987Z,101835.09
2024-01-21T16:11:22.452Z,101827.50
2024-01-21T16:13:48.949Z,101842.69
2024-01-21T16:16:15.569Z,101835.63
2024-01-21T16:18:42.226Z,101832.56
2024-01-21T16:21:08.713Z,101833.63
2024-01-21T16:23:35.784Z,101845.47
2024-01-21T16:26:02.315Z,101847.03
2024-01-21T16:28:28.846Z,101839.22
2024-01-21T16:30:55.458Z,101845.06
2024-01-21T16:33:22.115Z,101851.59
2024-01-21T16:35:48.633Z,101850.56
2024-01-21T16:38:15.234Z,101851.25
2024-01-21T16:40:41.764Z,101856.03
2024-01-21T16:43:08.264Z,101858.44
2024-01-21T16:45:34.948Z,101867.69
2024-01-21T16:48:01.607Z,101868.44
2024-01-21T16:50:28.211Z,101876.28
2024-01-21T16:52:54.737Z,101871.94
2024-01-21T16:55:21.244Z,101884.97
2024-01-21T16:57:47.761Z,101884.03
2024-01-21T17:00:14.324Z,101876.94
2024-01-21T17:02:40.805Z,101876.94
2024-01-21T17:05:07.461Z,101884.94
2024-01-21T17:07:34.221Z,101878.22
2024-01-21T17:10:00.701Z,101877.78
2024-01-21T17:12:27.156Z,101875.75
2024-01-21T17:14:53.968Z,101878.50
2024-01-21T17:17:20.555Z,101875.09
2024-01-21T17:19:47.015Z,101878.66
2024-01-21T17:22:13.695Z,101888.22
2024-01-21T17:24:40.165Z,101886.28
2024-01-21T17:27:06.764Z,101888.31
2024-01-21T17:29:33.342Z,101901.84
2024-01-21T17:31:59.841Z,101896.69
2024-01-21T17:34:26.414Z,101903.53
2024-01-21T17:36:53.314Z,101899.28
2024-01-21T17:39:19.904Z,101904.00
2024-01-21T17:41:46.421Z,101909.59
2024-01-21T17:44:13.025Z,101914.00
2024-01-21T17:46:39.559Z,101920.09
2024-01-21T17:49:06.316Z,101908.47
2024-01-21T17:51:32.981Z,101914.63
2024-01-21T17:53:59.467Z,101911.72
2024-01-21T17:56:25.934Z,101905.09
2024-01-21T17:58:52.537Z,101911.81
2024-01-21T18:01:19.134Z,101910.50
2024-01-21T18:03:45.670Z,101918.72
2024-01-21T18:06:12.237Z,101912.09
2024-01-21T18:08:38.877Z,101911.91
2024-01-21T18:11:05.434Z,101920.78
2024-01-21T18:13:32.051Z,101891.78
2024-01-21T18:15:58.525Z,101917.69
2024-01-21T18:18:25.047Z,101919.66
2024-01-21T18:20:51.703Z,101922.94
2024-01-21T18:23:18.182Z,101924.44
2024-01-21T18:25:44.647Z,101929.38
2024-01-21T18:28:11.258Z,101921.22
2024-01-21T18:30:37.728Z,101924.53
2024-01-21T18:33:04.427Z,101915.38
2024-01-21T18:35:31.185Z,101916.44
2024-01-21T18:37:57.738Z,101917.13
2024-01-21T18:40:24.204Z,101923.38
2024-01-21T18:42:50.814Z,101928.63
2024-01-21T18:45:17.382Z,101927.47
2024-01-21T18:47:43.990Z,101931.38
2024-01-21T18:50:10.613Z,101931.03
2024-01-21T18:52:37.090Z,101936.31
2024-01-21T18:55:03.580Z,101930.53
2024-01-21T18:57:30.121Z,101920.50
2024-01-21T18:59:56.642Z,101926.63
2024-01-21T19:02:23.266Z,101928.41
2024-01-21T19:04:50.443Z,101922.09
2024-01-21T19:07:17.193Z,101905.69
2024-01-21T19:09:43.881Z,101907.41
2024-01-21T19:12:10.546Z,101909.59
2024-01-21T19:14:37.167Z,101914.59
2024-01-21T19:17:03.721Z,101925.59
2024-01-21T19:19:30.337Z,101919.41
2024-01-21T19:21:56.763Z,101927.13
2024-01-21T19:24:23.318Z,101924.69
2024-01-21T19:26:50.001Z,101926.81
2024-01-21T19:29:16.448Z,101923.38
2024-01-21T19:31:42.917Z,101933.41
2024-01-21T19:34:09.613Z,101928.59
2024-01-21T19:36:36.068Z,101928.25
2024-01-21T19:39:02.574Z,101941.00
2024-01-21T19:41:29.197Z,101940.59
2024-01-21T19:43:55.654Z,101951.75
2024-01-21T19:46:22.135Z,101946.22
2024-01-21T19:48:50.935Z,101956.34
2024-01-21T19:51:17.554Z,101953.97
2024-01-21T19:53:43.975Z,101951.03
2024-01-21T19:56:10.587Z,101953.94
2024-01-21T19:58:37.050Z,101948.31
2024-01-21T20:01:03.793Z,101952.00
2024-01-21T20:03:30.501Z,101951.50
2024-01-21T20:05:57.156Z,101952.75
2024-01-21T20:08:23.732Z,101941.47
2024-01-21T20:10:50.312Z,101940.19
2024-01-21T20:13:16.805Z,101945.19
2024-01-21T20:15:43.517Z,101948.25
2024-01-21T20:18:10.133Z,101940.69
2024-01-21T20:20:36.705Z,101940.47
2024-01-21T20:23:03.225Z,101940.75
2024-01-21T20:25:29.754Z,101935.59
2024-01-21T20:27:56.227Z,101938.00
2024-01-21T20:30:22.694Z,101943.41
2024-01-21T20:32:49.387Z,101943.63
2024-01-21T20:35:16.293Z,101946.84
2024-01-21T20:37:42.745Z,101936.59
2024-01-21T20:40:09.286Z,101933.38
2024-01-21T20:42:35.760Z,101941.97
2024-01-21T20:45:02.278Z,101935.84
2024-01-21T20:47:29.046Z,101944.16
2024-01-21T20:49:55.537Z,101951.31
2024-01-21T20:52:21.991Z,101950.06
2024-01-21T20:54:48.577Z,101955.13
2024-01-21T20:57:15.108Z,101956.13
2024-01-21T20:59:41.779Z,101952.00
2024-01-21T21:02:08.341Z,101958.59
2024-01-21T21:04:34.764Z,101953.53
2024-01-21T21:07:01.299Z,101953.44
2024-01-21T21:09:27.835Z,101961.28
2024-01-21T21:11:54.429Z,101963.88
2024-01-21T21:14:20.926Z,101961.78
2024-01-21T21:16:47.455Z,101966.44
2024-01-21T21:19:14.320Z,101963.00
2024-01-21T21:21:40.942Z,101963.97
2024-01-21T21:24:07.552Z,101964.84
2024-01-21T21:26:34.167Z,101964.53
2024-01-21T21:29:00.592Z,101961.59
2024-01-21T21:31:27.137Z,101960.84
2024-01-21T21:33:53.773Z,101961.63
2024-01-21T21:36:20.358Z,101952.09
2024-01-21T21:38:47.040Z,101962.63
2024-01-21T21:41:13.517Z,101958.22
2024-01-21T21:43:40.002Z,101950.63
2024-01-21T21:46:06.593Z,101944.72
2024-01-21T21:48:33.293Z,101955.75
2024-01-21T21:51:00.013Z,101952.66
2024-01-21T21:53:27.345Z,101954.72
2024-01-21T21:55:53.913Z,101949.84
2024-01-21T21:58:20.593Z,101946.91
2024-01-21T22:00:48.063Z,101948.44
2024-01-21T22:03:15.587Z,101932.97
2024-01-21T22:05:42.294Z,101927.75
2024-01-21T22:08:09.246Z,101932.50
2024-01-21T22:10:36.551Z,101930.31
2024-01-21T22:13:03.095Z,101928.63
2024-01-21T22:15:29.638Z,101933.72
2024-01-21T22:17:56.261Z,101932.50
2024-01-21T22:20:22.956Z,101930.03
2024-01-21T22:22:50.305Z,101941.06
2024-01-21T22:25:16.766Z,101939.34
2024-01-21T22:27:43.217Z,101939.13
2024-01-21T22:30:09.829Z,101944.53
2024-01-21T22:32:36.446Z,101943.75
2024-01-21T22:35:03.112Z,101944.19
2024-01-21T22:37:30.409Z,101940.19
2024-01-21T22:39:56.846Z,101937.91
2024-01-21T22:42:23.292Z,101931.53
2024-01-21T22:44:49.851Z,101933.69
2024-01-21T22:47:16.382Z,101940.38
2024-01-21T22:49:42.943Z,101937.50
2024-01-21T22:52:09.746Z,101947.97
2024-01-21T22:54:36.398Z,101952.94
2024-01-21T22:57:02.960Z,101962.75
2024-01-21T22:59:29.551Z,101964.28
2024-01-21T23:01:55.997Z,101963.88
2024-01-21T23:04:22.479Z,101967.44
2024-01-21T23:06:49.118Z,101963.16
2024-01-21T23:09:15.631Z,101956.69
2024-01-21T23:11:42.243Z,101946.78
2024-01-21T23:14:08.846Z,101957.56
2024-01-21T23:16:35.308Z,101968.72
2024-01-21T23:19:01.831Z,101975.84
2024-01-21T23:21:28.432Z,101970.91
2024-01-21T23:23:54.972Z,101981.47
2024-01-21T23:26:21.420Z,101982.88
2024-01-21T23:28:47.952Z,101987.84
2024-01-21T23:31:14.544Z,101995.44
2024-01-21T23:33:41.107Z,101982.47
2024-01-21T23:36:07.777Z,101997.78
2024-01-21T23:38:34.262Z,101987.44
2024-01-21T23:41:00.739Z,101990.47
2024-01-21T23:43:27.302Z,101986.56
2024-01-21T23:45:53.783Z,101977.22
2024-01-21T23:48:20.314Z,101981.38
2024-01-21T23:50:46.894Z,101969.78
2024-01-21T23:53:13.402Z,101971.50
2024-01-21T23:55:39.898Z,101961.16
2024-01-21T23:58:06.481Z,101975.13
